Time;durP1;ratioP1;P1;durP2;ratioP2;P2;SDS_P1;SDS_P2;PMS_P1;PMS_P2;Temp;Humidity;BMP_temperature;BMP_pressure;BME280_temperature;BME280_humidity;BME280_pressure;Samples;Min_cycle;Max_cycle;Signal;HPM_P1;HPM_P2
2022/09/17 00:00:59;;;;;;;12.45;2.80;;;12.20;85.00;;;;;;4989790;28;20050;-45
2022/09/17 00:03:27;;;;;;;15.68;3.75;;;12.30;85.10;;;;;;4990186;28;20041;-46
2022/09/17 00:06:00;;;;;;;23.42;3.33;;;12.30;84.80;;;;;;4990163;28;20022;-46
2022/09/17 00:08:26;;;;;;;16.88;2.72;;;12.30;84.90;;;;;;4991176;28;20100;-47
2022/09/17 00:10:52;;;;;;;20.33;4.90;;;12.30;85.00;;;;;;4991005;28;20026;-44
2022/09/17 00:13:18;;;;;;;16.80;4.18;;;12.30;85.10;;;;;;4990767;28;20387;-45
2022/09/17 00:15:45;;;;;;;14.77;4.28;;;12.30;85.00;;;;;;4990034;28;20034;-45
2022/09/17 00:18:11;;;;;;;14.90;3.45;;;12.20;84.70;;;;;;4989993;28;20092;-43
2022/09/17 00:20:39;;;;;;;21.73;4.35;;;12.20;84.80;;;;;;4990983;28;20065;-44
2022/09/17 00:23:05;;;;;;;17.60;2.95;;;12.20;85.60;;;;;;4991178;28;20030;-45
2022/09/17 00:25:30;;;;;;;11.95;3.83;;;12.20;86.20;;;;;;4989715;28;20160;-46
2022/09/17 00:27:58;;;;;;;15.43;2.90;;;12.20;86.30;;;;;;4990886;28;20113;-44
2022/09/17 00:30:24;;;;;;;11.52;3.33;;;12.20;84.60;;;;;;4989922;28;20026;-45
2022/09/17 00:32:52;;;;;;;10.98;3.15;;;12.10;84.60;;;;;;4990753;28;20160;-46
2022/09/17 00:35:17;;;;;;;21.38;4.82;;;12.10;85.30;;;;;;4990490;28;20026;-48
2022/09/17 00:37:43;;;;;;;22.48;4.25;;;12.10;86.50;;;;;;4990186;28;20057;-45
2022/09/17 00:40:09;;;;;;;17.35;2.80;;;12.00;87.50;;;;;;4989621;28;20029;-62
2022/09/17 00:42:37;;;;;;;13.68;3.13;;;11.90;88.10;;;;;;4990585;28;20057;-59
2022/09/17 00:45:04;;;;;;;17.92;3.83;;;11.80;88.30;;;;;;4990049;28;20057;-62
2022/09/17 00:47:50;;;;;;;27.00;4.85;;;11.70;88.60;;;;;;4989991;28;20047;-57
2022/09/17 00:50:28;;;;;;;22.25;3.10;;;11.60;88.80;;;;;;4986131;28;20060;-52
2022/09/17 00:53:15;;;;;;;18.85;3.00;;;11.60;88.90;;;;;;4990113;28;20034;-61
2022/09/17 00:56:01;;;;;;;10.98;3.30;;;11.60;89.00;;;;;;4989618;28;20030;-56
2022/09/17 00:58:28;;;;;;;14.57;2.55;;;11.60;89.20;;;;;;5004301;28;20026;-53
2022/09/17 01:00:54;;;;;;;11.27;2.50;;;11.60;88.90;;;;;;4998277;28;20107;-52
2022/09/17 01:03:20;;;;;;;19.27;3.83;;;11.60;88.20;;;;;;4989706;28;20103;-58
2022/09/17 01:06:01;;;;;;;12.70;3.63;;;11.60;88.10;;;;;;4989772;28;20037;-60
2022/09/17 01:08:37;;;;;;;23.98;5.03;;;11.70;88.00;;;;;;4990322;28;20113;-57
2022/09/17 01:11:05;;;;;;;17.73;3.00;;;11.70;88.10;;;;;;4990167;28;20036;-55
2022/09/17 01:13:50;;;;;;;10.95;2.75;;;11.60;88.20;;;;;;4989673;28;20042;-52
2022/09/17 01:16:40;;;;;;;13.13;2.75;;;11.60;88.30;;;;;;5007679;28;20038;-51
2022/09/17 01:19:11;;;;;;;;;;;11.50;89.70;;;;;;4997214;28;20541;-62
2022/09/17 01:22:02;;;;;;;17.08;3.97;;;11.30;90.10;;;;;;4996015;28;19917;-63
2022/09/17 01:24:57;;;;;;;27.55;4.47;;;11.10;90.90;;;;;;5015072;28;20037;-66
2022/09/17 01:27:38;;;;;;;25.85;5.35;;;11.10;91.60;;;;;;4998810;28;20015;-64
2022/09/17 01:30:41;;;;;;;24.85;5.35;;;11.10;91.80;;;;;;4996721;28;20105;-66
2022/09/17 01:33:16;;;;;;;19.83;4.72;;;11.10;91.80;;;;;;5015549;28;20026;-60
2022/09/17 01:36:00;;;;;;;27.88;4.18;;;11.00;91.80;;;;;;4997783;28;20023;-61
2022/09/17 01:38:33;;;;;;;25.65;5.65;;;11.00;92.00;;;;;;5007370;28;20062;-65
2022/09/17 01:41:08;;;;;;;20.58;4.47;;;11.10;92.10;;;;;;5008747;28;20029;-65
2022/09/17 01:44:05;;;;;;;17.17;3.25;;;11.00;92.00;;;;;;5009382;28;20097;-61
2022/09/17 01:46:46;;;;;;;20.65;3.83;;;11.00;91.90;;;;;;5008247;28;20046;-53
2022/09/17 01:49:15;;;;;;;17.23;3.08;;;11.10;91.60;;;;;;5009748;28;20036;-57
2022/09/17 01:51:45;;;;;;;14.63;3.10;;;11.00;90.40;;;;;;5009717;28;20489;-54
2022/09/17 01:54:11;;;;;;;13.23;3.50;;;11.20;90.10;;;;;;5008384;28;20037;-57
2022/09/17 01:56:50;;;;;;;12.27;2.22;;;11.30;90.00;;;;;;5007530;28;20034;-58
2022/09/17 01:59:33;;;;;;;14.82;3.60;;;11.30;89.50;;;;;;4989489;28;20031;-58
2022/09/17 02:02:13;;;;;;;25.23;3.40;;;11.30;89.40;;;;;;4989813;28;20030;-57
2022/09/17 02:05:00;;;;;;;17.63;3.80;;;11.30;89.30;;;;;;4989728;28;20037;-52
2022/09/17 02:07:28;;;;;;;20.23;3.45;;;11.30;89.10;;;;;;4989416;28;20859;-55
2022/09/17 02:10:00;;;;;;;10.25;3.03;;;11.30;88.80;;;;;;5004939;28;20062;-55
2022/09/17 02:12:41;;;;;;;13.50;2.33;;;11.10;87.50;;;;;;4989800;28;20037;-55
2022/09/17 02:15:11;;;;;;;10.43;2.38;;;11.10;87.10;;;;;;4989383;28;20042;-49
2022/09/17 02:17:48;;;;;;;;;;;11.10;87.50;;;;;;4989999;28;20034;-53
2022/09/17 02:20:16;;;;;;;14.90;2.20;;;11.10;87.80;;;;;;4988693;28;20068;-49
2022/09/17 02:22:56;;;;;;;17.38;2.75;;;11.00;87.40;;;;;;4984059;28;20023;-51
2022/09/17 02:25:51;;;;;;;13.75;2.47;;;11.10;87.80;;;;;;4979764;28;20038;-52
2022/09/17 02:28:28;;;;;;;14.52;2.28;;;11.10;87.30;;;;;;4994043;28;20526;-49
2022/09/17 02:30:54;;;;;;;13.10;2.42;;;11.00;86.50;;;;;;5008461;28;20037;-48
2022/09/17 02:33:20;;;;;;;11.45;3.58;;;11.00;86.70;;;;;;4992995;28;20034;-48
2022/09/17 02:35:46;;;;;;;14.50;2.67;;;11.00;87.30;;;;;;4992814;28;20324;-52
2022/09/17 02:38:12;;;;;;;11.85;2.30;;;11.00;87.60;;;;;;4992943;28;20327;-48
2022/09/17 02:40:48;;;;;;;17.83;3.22;;;10.90;87.50;;;;;;4992835;28;20022;-48
2022/09/17 02:43:29;;;;;;;17.58;3.63;;;10.90;87.60;;;;;;4992680;28;20040;-49
2022/09/17 02:46:28;;;;;;;16.58;2.80;;;10.90;87.60;;;;;;4992310;28;20053;-47
2022/09/17 02:49:12;;;;;;;16.55;2.40;;;11.00;87.50;;;;;;4992941;28;20030;-47
2022/09/17 02:51:41;;;;;;;12.35;2.08;;;11.00;87.30;;;;;;4992429;28;20034;-50
2022/09/17 02:54:16;;;;;;;17.65;3.78;;;11.20;87.10;;;;;;4992282;28;20030;-47
2022/09/17 02:56:56;;;;;;;13.50;3.63;;;11.40;87.10;;;;;;4992550;28;20026;-48
2022/09/17 02:59:31;;;;;;;17.42;3.38;;;11.40;86.70;;;;;;4992678;28;20030;-46
2022/09/17 03:02:17;;;;;;;22.05;4.00;;;11.50;86.20;;;;;;4992140;28;20022;-45
2022/09/17 03:04:46;;;;;;;14.40;3.30;;;11.50;85.80;;;;;;5007371;28;20077;-46
2022/09/17 03:07:12;;;;;;;12.90;3.83;;;11.40;85.90;;;;;;4992487;28;20514;-46
2022/09/17 03:09:39;;;;;;;14.48;3.33;;;11.40;86.20;;;;;;4992274;28;20026;-46
2022/09/17 03:12:04;;;;;;;12.38;3.40;;;11.40;83.80;;;;;;4992318;28;20042;-45
2022/09/17 03:14:30;;;;;;;9.43;2.15;;;11.40;82.30;;;;;;4991850;28;20026;-52
2022/09/17 03:16:58;;;;;;;9.40;2.22;;;11.30;82.80;;;;;;4992183;28;20033;-48
2022/09/17 03:19:24;;;;;;;9.40;1.92;;;11.20;82.40;;;;;;4992087;28;20444;-47
2022/09/17 03:21:52;;;;;;;7.63;1.35;;;11.10;82.10;;;;;;4991904;28;20037;-48
2022/09/17 03:24:17;;;;;;;11.43;2.10;;;11.10;82.20;;;;;;4991743;28;20033;-52
2022/09/17 03:26:43;;;;;;;12.23;3.35;;;11.10;82.90;;;;;;4990909;28;20030;-51
2022/09/17 03:29:09;;;;;;;12.82;2.38;;;11.10;83.50;;;;;;4992165;28;20038;-49
2022/09/17 03:31:34;;;;;;;7.80;1.38;;;11.10;83.40;;;;;;4991914;28;20026;-50
2022/09/17 03:34:00;;;;;;;7.05;1.75;;;11.00;82.40;;;;;;4991583;28;20363;-54
2022/09/17 03:36:26;;;;;;;9.02;1.52;;;11.00;81.90;;;;;;4990176;28;20026;-50
2022/09/17 03:38:55;;;;;;;12.65;1.90;;;11.10;82.50;;;;;;4991514;28;20022;-46
2022/09/17 03:41:21;;;;;;;10.13;1.83;;;11.20;82.50;;;;;;5006919;28;20027;-48
2022/09/17 03:43:46;;;;;;;10.55;1.98;;;11.20;82.30;;;;;;4991215;28;20037;-48
2022/09/17 03:46:12;;;;;;;9.27;2.70;;;11.10;82.10;;;;;;4991074;28;20423;-52
2022/09/17 03:48:38;;;;;;;11.90;3.13;;;11.10;82.90;;;;;;4991448;28;20043;-50
2022/09/17 03:51:07;;;;;;;11.48;3.30;;;11.10;82.80;;;;;;4991079;28;20411;-49
2022/09/17 03:53:32;;;;;;;20.92;3.03;;;11.00;83.30;;;;;;4991305;28;20050;-49
2022/09/17 03:56:03;;;;;;;11.60;3.00;;;11.00;83.70;;;;;;5006288;28;20058;-68
2022/09/17 03:58:30;;;;;;;16.15;2.25;;;11.00;84.50;;;;;;4991016;28;20034;-61
2022/09/17 04:00:56;;;;;;;13.57;2.42;;;10.90;85.80;;;;;;4991347;28;20113;-49
2022/09/17 04:03:26;;;;;;;19.10;3.15;;;10.70;87.20;;;;;;4991081;28;20037;-59
2022/09/17 04:05:52;;;;;;;14.82;2.17;;;10.60;87.90;;;;;;4990972;28;20076;-64
2022/09/17 04:08:24;;;;;;;17.77;3.33;;;10.60;88.60;;;;;;4990115;28;20030;-61
2022/09/17 04:10:52;;;;;;;20.17;4.07;;;10.50;88.80;;;;;;4988844;28;20450;-59
2022/09/17 04:13:19;;;;;;;20.15;3.50;;;10.40;89.20;;;;;;4990464;28;20033;-58
2022/09/17 04:15:45;;;;;;;16.05;3.83;;;10.40;89.80;;;;;;4990462;28;20030;-51
2022/09/17 04:18:11;;;;;;;21.02;3.50;;;10.60;90.50;;;;;;4989381;28;20037;-55
2022/09/17 04:20:38;;;;;;;17.52;3.05;;;10.80;90.20;;;;;;4989759;28;20040;-54
2022/09/17 04:23:04;;;;;;;11.40;2.58;;;10.90;88.90;;;;;;4978012;28;20055;-55
2022/09/17 04:25:29;;;;;;;11.20;2.63;;;10.90;87.40;;;;;;4991750;28;20053;-54
2022/09/17 04:27:55;;;;;;;10.43;2.53;;;10.90;87.10;;;;;;4997725;28;20042;-53
2022/09/17 04:30:21;;;;;;;12.85;2.95;;;10.90;86.70;;;;;;4990696;28;20109;-55
2022/09/17 04:32:47;;;;;;;11.77;2.88;;;10.80;86.70;;;;;;4990815;28;20022;-57
2022/09/17 04:35:13;;;;;;;12.48;2.80;;;10.80;87.00;;;;;;4995575;28;20055;-56
2022/09/17 04:37:41;;;;;;;19.90;3.70;;;10.80;86.80;;;;;;4998854;28;20034;-55
2022/09/17 04:40:09;;;;;;;16.25;3.13;;;10.80;86.50;;;;;;4996590;28;20054;-53
2022/09/17 04:42:35;;;;;;;17.85;3.25;;;10.80;85.80;;;;;;4992339;28;20482;-57
2022/09/17 04:45:01;;;;;;;15.20;2.58;;;10.90;84.90;;;;;;4990131;28;20054;-51
2022/09/17 04:47:26;;;;;;;11.38;2.95;;;10.90;84.30;;;;;;4989682;28;20065;-54
2022/09/17 04:49:52;;;;;;;16.38;2.92;;;10.90;83.90;;;;;;4990650;28;20026;-53
2022/09/17 04:52:18;;;;;;;13.20;2.85;;;10.90;83.60;;;;;;4990258;28;20034;-52
2022/09/17 04:54:44;;;;;;;17.98;3.92;;;10.90;84.00;;;;;;4990327;28;20092;-51
2022/09/17 04:57:09;;;;;;;11.15;2.38;;;10.90;84.30;;;;;;5005577;28;20030;-49
2022/09/17 04:59:35;;;;;;;16.35;3.15;;;10.90;84.20;;;;;;5005951;28;20465;-50
2022/09/17 05:02:03;;;;;;;20.85;2.95;;;10.90;84.00;;;;;;4990206;28;20030;-51
2022/09/17 05:04:28;;;;;;;22.77;3.40;;;11.00;84.00;;;;;;4989228;28;20023;-53
2022/09/17 05:06:56;;;;;;;17.77;2.55;;;11.10;84.00;;;;;;4990177;28;20336;-48
2022/09/17 05:09:22;;;;;;;13.57;3.17;;;11.20;84.20;;;;;;4989109;28;20026;-53
2022/09/17 05:11:47;;;;;;;12.30;2.92;;;11.10;84.00;;;;;;4988984;28;20440;-52
2022/09/17 05:14:13;;;;;;;7.45;2.47;;;11.10;84.50;;;;;;4973062;28;20030;-51
2022/09/17 05:16:39;;;;;;;15.00;2.95;;;11.00;84.80;;;;;;4989980;28;20030;-50
2022/09/17 05:19:04;;;;;;;17.92;2.65;;;11.00;84.70;;;;;;5011377;28;21219;-53
2022/09/17 05:21:30;;;;;;;17.38;3.28;;;11.00;84.90;;;;;;4982436;28;20387;-50
2022/09/17 05:23:58;;;;;;;13.50;3.00;;;11.00;84.80;;;;;;4985044;28;20058;-49
2022/09/17 05:26:24;;;;;;;16.20;3.28;;;11.00;84.50;;;;;;4996103;28;20027;-49
2022/09/17 05:28:49;;;;;;;17.60;4.03;;;11.10;83.90;;;;;;4999845;28;20083;-49
2022/09/17 05:31:15;;;;;;;14.88;3.33;;;11.20;83.60;;;;;;4994861;28;20379;-52
2022/09/17 05:33:41;;;;;;;18.55;3.13;;;11.20;83.80;;;;;;4990092;28;20030;-50
2022/09/17 05:36:07;;;;;;;11.57;2.28;;;11.20;83.20;;;;;;4988631;28;20070;-54
2022/09/17 05:38:34;;;;;;;9.63;2.75;;;11.30;81.40;;;;;;4989854;28;20037;-49
2022/09/17 05:41:04;;;;;;;14.98;4.18;;;11.40;79.80;;;;;;4989828;28;20098;-48
2022/09/17 05:43:32;;;;;;;16.80;3.22;;;11.40;80.00;;;;;;4989969;28;20512;-50
2022/09/17 05:46:03;;;;;;;17.10;3.17;;;11.50;80.10;;;;;;4989288;28;20058;-50
2022/09/17 05:48:31;;;;;;;16.98;2.63;;;11.60;80.80;;;;;;4989779;28;20038;-49
2022/09/17 05:50:56;;;;;;;16.45;3.17;;;11.70;80.80;;;;;;4989878;28;20038;-51
2022/09/17 05:53:22;;;;;;;17.50;3.63;;;11.60;81.20;;;;;;4994072;28;20047;-51
2022/09/17 05:55:55;;;;;;;8.10;2.60;;;11.60;79.10;;;;;;4997758;28;20101;-50
2022/09/17 05:58:21;;;;;;;14.43;3.80;;;11.50;78.50;;;;;;5006112;28;20034;-54
2022/09/17 06:00:47;;;;;;;11.95;2.65;;;11.60;80.00;;;;;;4999678;28;20507;-53
2022/09/17 06:03:15;;;;;;;13.73;3.30;;;11.60;80.10;;;;;;4994756;28;20019;-52
2022/09/17 06:05:41;;;;;;;19.98;3.20;;;11.60;79.10;;;;;;4995821;28;20479;-57
2022/09/17 06:08:07;;;;;;;9.75;2.33;;;11.70;78.30;;;;;;4995527;28;20030;-55
2022/09/17 06:10:37;;;;;;;15.80;3.65;;;11.70;78.40;;;;;;5010828;28;20031;-53
2022/09/17 06:13:03;;;;;;;11.52;2.90;;;11.70;78.60;;;;;;4992642;28;20030;-54
2022/09/17 06:15:29;;;;;;;16.63;2.53;;;11.60;79.30;;;;;;4997802;28;20031;-54
2022/09/17 06:17:55;;;;;;;15.70;3.08;;;11.60;79.70;;;;;;4995264;28;20031;-55
2022/09/17 06:20:21;;;;;;;12.27;2.50;;;11.70;79.70;;;;;;5003561;28;20080;-51
2022/09/17 06:22:46;;;;;;;16.15;3.35;;;11.70;79.40;;;;;;5016324;28;20058;-47
2022/09/17 06:25:12;;;;;;;15.40;4.13;;;11.80;79.30;;;;;;4992383;28;20586;-50
2022/09/17 06:27:38;;;;;;;13.73;3.05;;;11.70;78.30;;;;;;5009143;28;20105;-47
2022/09/17 06:30:05;;;;;;;16.10;3.22;;;11.80;78.30;;;;;;5005737;28;20582;-46
2022/09/17 06:32:34;;;;;;;11.02;2.95;;;11.70;77.40;;;;;;5000347;28;20026;-48
2022/09/17 06:35:00;;;;;;;11.98;1.88;;;11.70;77.70;;;;;;5017717;28;20026;-47
2022/09/17 06:37:32;;;;;;;17.85;2.90;;;11.70;77.90;;;;;;4998421;28;20033;-47
2022/09/17 06:39:58;;;;;;;13.50;2.97;;;11.70;78.60;;;;;;4999543;28;20062;-46
2022/09/17 06:42:25;;;;;;;13.77;2.08;;;11.70;78.80;;;;;;4991890;28;20069;-45
2022/09/17 06:44:51;;;;;;;14.05;2.63;;;11.70;78.40;;;;;;4996339;28;20595;-50
2022/09/17 06:47:17;;;;;;;11.98;2.67;;;11.70;78.30;;;;;;4990626;28;20046;-48
2022/09/17 06:49:42;;;;;;;13.02;2.45;;;11.80;77.40;;;;;;4998425;28;20072;-45
2022/09/17 06:52:08;;;;;;;15.95;2.92;;;11.70;76.80;;;;;;4998897;28;20026;-46
2022/09/17 06:54:37;;;;;;;15.70;2.65;;;11.60;78.10;;;;;;4994598;28;20022;-46
2022/09/17 06:57:03;;;;;;;10.55;2.47;;;11.40;80.90;;;;;;5001655;28;20092;-45
2022/09/17 06:59:30;;;;;;;16.70;2.50;;;11.40;81.60;;;;;;4993736;28;20027;-45
2022/09/17 07:01:56;;;;;;;16.05;2.35;;;11.30;81.30;;;;;;5001550;28;20042;-49
2022/09/17 07:04:24;;;;;;;9.93;1.77;;;11.30;81.80;;;;;;4994914;28;20053;-55
2022/09/17 07:06:50;;;;;;;9.25;1.73;;;11.20;82.30;;;;;;4991897;28;20026;-53
2022/09/17 07:09:15;;;;;;;5.78;1.48;;;11.00;82.60;;;;;;4993254;28;20037;-57
2022/09/17 07:11:41;;;;;;;10.55;2.13;;;10.90;82.40;;;;;;4994955;28;20054;-56
2022/09/17 07:14:09;;;;;;;6.50;1.40;;;11.00;82.70;;;;;;5002082;28;20052;-66
2022/09/17 07:16:35;;;;;;;8.43;1.33;;;11.00;85.20;;;;;;4999675;28;20037;-65
2022/09/17 07:19:04;;;;;;;5.90;1.55;;;10.90;86.30;;;;;;5004195;28;20072;-68
2022/09/17 07:21:30;;;;;;;9.70;1.48;;;10.80;86.70;;;;;;5000537;28;20050;-69
2022/09/17 07:23:56;;;;;;;9.50;1.75;;;10.60;87.20;;;;;;5006300;28;20157;-68
2022/09/17 07:26:22;;;;;;;15.68;2.45;;;10.60;87.80;;;;;;5016905;28;20014;-63
2022/09/17 07:28:47;;;;;;;13.38;1.88;;;10.60;87.80;;;;;;5009877;28;20044;-68
2022/09/17 07:31:13;;;;;;;8.75;1.38;;;10.70;87.90;;;;;;5000418;28;20054;-64
2022/09/17 07:33:40;;;;;;;7.70;1.75;;;10.70;87.90;;;;;;4993414;28;20034;-61
2022/09/17 07:36:08;;;;;;;11.65;1.23;;;10.80;85.80;;;;;;5009055;28;20034;-60
2022/09/17 07:38:34;;;;;;;8.35;1.20;;;10.70;84.10;;;;;;4991425;28;21237;-58
2022/09/17 07:41:03;;;;;;;5.15;1.10;;;10.70;82.80;;;;;;4994323;28;20033;-68
2022/09/17 07:43:31;;;;;;;4.22;0.98;;;10.50;83.30;;;;;;5013662;28;20033;-62
2022/09/17 07:45:58;;;;;;;7.97;1.15;;;10.50;83.50;;;;;;4995499;28;20141;-62
2022/09/17 07:48:24;;;;;;;5.82;1.75;;;10.40;83.80;;;;;;4991504;28;20344;-65
2022/09/17 07:50:50;;;;;;;8.25;1.55;;;10.40;84.20;;;;;;4993322;28;20022;-66
2022/09/17 07:53:16;;;;;;;8.50;2.20;;;10.40;85.20;;;;;;5008951;28;20034;-66
2022/09/17 07:55:42;;;;;;;10.18;1.73;;;10.40;85.60;;;;;;5002731;28;20109;-61
2022/09/17 07:58:08;;;;;;;15.45;2.42;;;10.40;85.80;;;;;;4981087;28;20097;-65
2022/09/17 08:00:36;;;;;;;12.70;2.33;;;10.40;86.60;;;;;;5006030;28;20096;-64
2022/09/17 08:03:01;;;;;;;13.63;3.13;;;10.40;87.20;;;;;;4997941;28;20104;-65
2022/09/17 08:05:30;;;;;;;9.68;2.35;;;10.40;88.30;;;;;;4972044;28;20031;-64
2022/09/17 08:07:57;;;;;;;10.95;2.45;;;10.40;88.70;;;;;;4989121;28;20038;-66
2022/09/17 08:10:25;;;;;;;11.80;2.20;;;10.40;89.10;;;;;;4982891;28;20030;-66
2022/09/17 08:12:58;;;;;;;16.38;2.70;;;10.50;89.90;;;;;;4988450;28;20034;-67
2022/09/17 08:15:25;;;;;;;7.70;1.70;;;10.60;90.80;;;;;;4988821;28;20030;-62
2022/09/17 08:17:52;;;;;;;7.13;2.03;;;10.60;89.50;;;;;;4987874;28;20045;-60
2022/09/17 08:20:20;;;;;;;9.93;1.48;;;10.50;88.70;;;;;;4988993;28;20355;-66
2022/09/17 08:22:48;;;;;;;9.05;1.80;;;10.40;88.00;;;;;;4973847;28;20072;-57
2022/09/17 08:25:14;;;;;;;8.15;1.40;;;10.40;88.10;;;;;;4987775;28;20460;-57
2022/09/17 08:27:39;;;;;;;11.18;1.73;;;10.20;88.40;;;;;;5004435;28;20045;-62
2022/09/17 08:30:06;;;;;;;11.23;1.67;;;9.90;88.80;;;;;;4976688;28;20105;-60
2022/09/17 08:32:37;;;;;;;10.05;2.85;;;9.70;89.30;;;;;;4986740;28;20456;-63
2022/09/17 08:35:06;;;;;;;4.43;0.95;;;9.70;89.70;;;;;;4971165;28;20045;-65
2022/09/17 08:37:32;;;;;;;5.47;1.13;;;9.60;89.10;;;;;;4979869;28;20088;-66
2022/09/17 08:39:57;;;;;;;6.47;1.27;;;9.60;89.10;;;;;;4991145;28;20133;-63
2022/09/17 08:42:40;;;;;;;7.18;0.85;;;9.70;89.30;;;;;;4997750;28;20029;-58
2022/09/17 08:45:13;;;;;;;6.55;0.70;;;9.70;89.40;;;;;;5010713;28;20387;-61
2022/09/17 08:47:44;;;;;;;1.77;0.55;;;9.70;89.10;;;;;;4999566;28;20034;-60
2022/09/17 08:50:26;;;;;;;5.95;1.33;;;9.60;88.00;;;;;;4984901;28;20029;-63
2022/09/17 08:53:16;;;;;;;7.38;1.40;;;9.70;88.80;;;;;;4971821;28;20033;-58
2022/09/17 08:56:01;;;;;;;11.80;2.13;;;9.70;90.00;;;;;;4989726;28;20022;-59
2022/09/17 08:58:39;;;;;;;12.73;3.17;;;9.80;91.00;;;;;;4993873;28;20030;-60
2022/09/17 09:01:41;;;;;;;12.13;2.50;;;9.90;91.50;;;;;;4999196;28;20032;-64
2022/09/17 09:04:34;;;;;;;17.08;2.78;;;9.90;91.70;;;;;;4974582;28;20042;-63
2022/09/17 09:07:08;;;;;;;16.98;2.42;;;10.00;92.00;;;;;;4982862;28;20053;-59
2022/09/17 09:09:42;;;;;;;23.60;5.43;;;10.30;92.20;;;;;;4977570;28;20031;-59
2022/09/17 09:12:17;;;;;;;21.25;4.25;;;10.50;92.40;;;;;;4969817;28;20038;-63
2022/09/17 09:15:03;;;;;;;16.67;3.17;;;10.70;92.10;;;;;;4984847;28;20436;-58
2022/09/17 09:17:37;;;;;;;23.67;3.90;;;11.10;92.10;;;;;;4991223;28;20058;-55
2022/09/17 09:20:11;;;;;;;10.55;2.50;;;11.80;90.80;;;;;;4981153;28;20027;-56
2022/09/17 09:22:50;;;;;;;15.95;3.65;;;12.10;89.30;;;;;;4970293;28;20030;-54
2022/09/17 09:25:26;;;;;;;17.05;4.20;;;12.10;88.70;;;;;;4973530;28;20041;-57
2022/09/17 09:28:15;;;;;;;17.83;2.90;;;12.00;88.20;;;;;;4977731;28;20038;-53
2022/09/17 09:31:02;;;;;;;13.75;2.35;;;11.90;87.60;;;;;;4971034;28;20797;-51
2022/09/17 09:33:36;;;;;;;12.43;2.33;;;11.90;86.50;;;;;;4974767;28;20110;-49
2022/09/17 09:36:11;;;;;;;11.25;2.20;;;11.90;86.20;;;;;;4986407;28;20455;-52
2022/09/17 09:38:51;;;;;;;12.70;2.20;;;11.90;84.70;;;;;;4993889;28;20066;-49
2022/09/17 09:42:01;;;;;;;6.63;1.38;;;11.90;83.90;;;;;;4985937;28;20026;-64
2022/09/17 09:44:29;;;;;;;3.10;1.13;;;11.10;84.80;;;;;;4984273;28;20169;-64
2022/09/17 09:47:19;;;;;;;6.95;2.05;;;10.50;86.00;;;;;;4982221;28;20523;-66
2022/09/17 09:50:10;;;;;;;7.80;1.67;;;10.30;87.50;;;;;;4992088;28;20091;-63
2022/09/17 09:52:41;;;;;;;7.57;1.48;;;10.20;88.60;;;;;;5012867;28;20029;-58
2022/09/17 09:55:34;;;;;;;10.30;2.30;;;10.30;89.20;;;;;;5004363;28;20129;-55
2022/09/17 09:58:31;;;;;;;9.48;2.40;;;10.30;89.50;;;;;;4989047;28;20026;-53
2022/09/17 10:00:56;;;;;;;19.58;3.90;;;10.50;89.80;;;;;;4998409;28;20037;-52
2022/09/17 10:03:31;;;;;;;15.20;2.53;;;10.60;90.10;;;;;;5008688;28;20029;-54
2022/09/17 10:06:01;;;;;;;16.17;2.75;;;10.70;90.20;;;;;;5012595;28;20018;-54
2022/09/17 10:08:30;;;;;;;24.08;2.88;;;10.90;90.30;;;;;;4999839;28;20060;-54
2022/09/17 10:11:02;;;;;;;18.15;3.03;;;11.00;90.50;;;;;;4992713;28;20038;-56
2022/09/17 10:13:31;;;;;;;20.58;3.63;;;11.20;90.60;;;;;;4985566;28;20301;-53
2022/09/17 10:16:13;;;;;;;18.53;5.13;;;11.40;90.60;;;;;;4981514;28;20027;-55
2022/09/17 10:18:38;;;;;;;17.50;2.50;;;11.60;88.90;;;;;;5004599;28;20452;-52
2022/09/17 10:21:04;;;;;;;15.15;2.70;;;11.70;86.90;;;;;;4989111;28;20027;-56
2022/09/17 10:23:36;;;;;;;11.98;2.58;;;11.70;87.10;;;;;;4983744;28;20212;-66
2022/09/17 10:26:02;;;;;;;8.00;1.73;;;11.50;87.20;;;;;;4992742;28;20014;-66
2022/09/17 10:28:38;;;;;;;12.43;3.08;;;11.20;87.40;;;;;;4991150;28;20493;-62
2022/09/17 10:31:09;;;;;;;5.60;2.33;;;11.10;87.70;;;;;;4992529;28;20344;-60
2022/09/17 10:34:00;;;;;;;5.35;1.40;;;11.10;86.90;;;;;;4992574;28;20444;-61
2022/09/17 10:36:38;;;;;;;7.35;1.52;;;10.90;87.30;;;;;;5007761;28;20045;-57
2022/09/17 10:39:28;;;;;;;11.65;2.25;;;11.00;88.30;;;;;;4997485;28;20109;-65
2022/09/17 10:41:54;;;;;;;15.43;3.15;;;11.10;89.70;;;;;;4992337;28;20030;-64
2022/09/17 10:44:22;;;;;;;20.55;3.28;;;11.20;90.80;;;;;;5011722;28;20036;-64
2022/09/17 10:46:49;;;;;;;24.77;5.75;;;11.20;91.30;;;;;;4998386;28;20046;-60
2022/09/17 10:49:36;;;;;;;28.25;5.50;;;11.20;91.30;;;;;;4983490;28;20018;-58
2022/09/17 10:52:11;;;;;;;26.48;3.97;;;11.30;91.20;;;;;;5007038;28;20084;-57
2022/09/17 10:54:52;;;;;;;15.65;3.53;;;11.40;90.80;;;;;;5000040;28;20088;-56
2022/09/17 10:57:36;;;;;;;12.63;2.58;;;11.50;90.40;;;;;;4981804;28;20037;-57
2022/09/17 11:00:17;;;;;;;11.77;2.13;;;11.70;89.60;;;;;;4986285;28;20041;-64
2022/09/17 11:03:25;;;;;;;8.77;1.80;;;11.70;88.40;;;;;;4994761;28;20107;-63
2022/09/17 11:06:33;;;;;;;19.40;3.17;;;11.50;88.60;;;;;;5003138;28;20140;-61
2022/09/17 11:09:20;;;;;;;18.17;2.92;;;11.40;89.40;;;;;;4987382;28;20395;-61
2022/09/17 11:12:04;;;;;;;16.08;1.98;;;11.40;90.20;;;;;;4996801;28;20141;-57
2022/09/17 11:14:49;;;;;;;17.17;3.05;;;11.60;90.40;;;;;;5004974;28;20030;-56
2022/09/17 11:17:51;;;;;;;14.32;3.08;;;11.80;89.20;;;;;;4994006;28;20026;-57
2022/09/17 11:20:41;;;;;;;13.15;2.55;;;12.10;88.70;;;;;;4975639;28;20073;-55
2022/09/17 11:23:45;;;;;;;11.80;2.10;;;12.40;87.70;;;;;;4971092;28;20023;-52
2022/09/17 11:26:31;;;;;;;13.00;3.75;;;12.80;85.30;;;;;;4971875;28;20035;-50
2022/09/17 11:29:12;;;;;;;17.40;2.97;;;13.30;83.40;;;;;;4974099;28;20117;-49
2022/09/17 11:31:41;;;;;;;18.77;3.47;;;13.40;83.50;;;;;;4972242;28;20070;-51
2022/09/17 11:34:31;;;;;;;14.93;1.80;;;13.50;83.90;;;;;;4975095;28;20054;-53
2022/09/17 11:37:17;;;;;;;9.82;2.38;;;13.10;84.60;;;;;;4979007;28;20117;-54
2022/09/17 11:39:53;;;;;;;15.00;3.67;;;12.40;86.30;;;;;;4984336;28;20037;-51
2022/09/17 11:42:27;;;;;;;24.70;6.65;;;12.20;87.60;;;;;;5003556;28;20029;-53
2022/09/17 11:45:01;;;;;;;21.77;6.47;;;12.40;88.90;;;;;;4993609;28;20026;-52
2022/09/17 11:47:34;;;;;;;26.58;10.57;;;12.50;88.20;;;;;;4982399;28;20495;-50
2022/09/17 11:50:22;;;;;;;15.00;4.03;;;12.60;87.80;;;;;;4983959;28;20029;-48
2022/09/17 11:53:14;;;;;;;23.35;8.27;;;12.60;87.40;;;;;;5006456;28;20026;-50
2022/09/17 11:55:48;;;;;;;17.25;5.10;;;12.80;87.70;;;;;;4994085;28;20033;-51
2022/09/17 11:58:36;;;;;;;15.63;3.67;;;13.00;87.60;;;;;;4997621;28;20181;-50
2022/09/17 12:01:08;;;;;;;11.20;2.58;;;13.10;87.50;;;;;;4990481;28;20035;-48
2022/09/17 12:03:42;;;;;;;14.95;3.00;;;13.10;84.00;;;;;;4990434;28;20025;-47
2022/09/17 12:06:16;;;;;;;13.00;3.72;;;13.20;82.90;;;;;;4989177;28;20081;-48
2022/09/17 12:09:24;;;;;;;16.10;3.33;;;13.10;84.50;;;;;;4990322;28;20030;-48
2022/09/17 12:12:02;;;;;;;12.38;2.47;;;12.90;83.40;;;;;;4991424;28;20057;-48
2022/09/17 12:14:46;;;;;;;20.02;2.92;;;12.90;83.30;;;;;;4990178;28;20464;-50
2022/09/17 12:17:22;;;;;;;17.67;2.40;;;12.90;83.10;;;;;;4990060;28;20665;-52
2022/09/17 12:19:57;;;;;;;13.05;3.70;;;12.90;84.40;;;;;;4989982;28;20038;-60
2022/09/17 12:22:30;;;;;;;14.15;2.50;;;12.70;85.00;;;;;;4998992;28;20113;-57
2022/09/17 12:24:59;;;;;;;10.57;1.73;;;12.50;84.30;;;;;;4999771;28;20014;-50
2022/09/17 12:27:51;;;;;;;20.00;3.63;;;12.40;84.50;;;;;;4990221;28;20168;-52
2022/09/17 12:30:32;;;;;;;14.20;3.47;;;12.60;85.70;;;;;;5004671;28;20037;-50
2022/09/17 12:33:19;;;;;;;14.07;2.30;;;12.90;83.10;;;;;;5009303;28;20452;-50
2022/09/17 12:36:12;;;;;;;5.30;1.75;;;12.90;80.40;;;;;;5009931;28;20022;-60
2022/09/17 12:39:05;;;;;;;10.18;2.28;;;12.40;82.70;;;;;;4969894;28;20034;-54
2022/09/17 12:42:05;;;;;;;17.35;3.85;;;12.20;84.90;;;;;;4979463;28;20097;-54
2022/09/17 12:44:39;;;;;;;16.15;2.35;;;12.10;86.00;;;;;;5004697;28;20052;-52
2022/09/17 12:47:16;;;;;;;15.43;2.65;;;12.20;87.10;;;;;;4998043;28;20038;-51
2022/09/17 12:50:19;;;;;;;11.43;2.25;;;12.30;87.10;;;;;;4989301;28;20018;-52
2022/09/17 12:53:13;;;;;;;15.02;2.10;;;12.40;86.40;;;;;;4989552;28;20053;-50
2022/09/17 12:56:04;;;;;;;19.20;5.05;;;12.60;86.90;;;;;;5008372;28;20050;-48
2022/09/17 12:58:58;;;;;;;16.92;4.00;;;12.60;86.50;;;;;;4981942;28;20046;-47
2022/09/17 13:01:47;;;;;;;11.48;3.03;;;12.70;83.40;;;;;;4985537;28;20039;-53
2022/09/17 13:04:34;;;;;;;22.08;4.28;;;12.80;84.00;;;;;;4996364;28;20098;-52
2022/09/17 13:07:24;;;;;;;19.98;3.90;;;12.70;84.90;;;;;;4976447;28;20504;-51
2022/09/17 13:10:28;;;;;;;11.10;3.22;;;12.90;84.90;;;;;;4973062;28;20069;-49
2022/09/17 13:13:15;;;;;;;10.60;2.38;;;12.80;85.30;;;;;;4988377;28;20126;-59